Terminal Aerodrome Forecast
Issued by NWS Cleveland, OH

Home | Current Version | Previous Version | Graphics & Text | Print | Product List | Glossary Off
Versions: 1 2 3 4 5 6 7 8 9 10 11 12 13 14 15 16 17

920
FTUS41 KCLE 240821 AAA
TAFCAK
TAF AMD
KCAK 240821Z 2408/2506 24004KT 6SM BR FEW003 SCT080
      TEMPO 2409/2413 3SM BR BKN003
     FM241300 30007KT 6SM BR VCSH BKN006
     FM241700 32010KT P6SM BKN020
     FM242100 33012KT P6SM BKN035
     FM250500 35005KT P6SM SCT030=

USA.gov is the U.S. government's official web portal to all federal, state and local government web resources and services.